createdAt,value
2022-09-11T00:02:06.975Z,6.05
2022-09-11T00:04:33.607Z,6.18
2022-09-11T00:07:00.094Z,6.43
2022-09-11T00:09:26.811Z,7.50
2022-09-11T00:11:53.303Z,8.23
2022-09-11T00:14:20.035Z,7.03
2022-09-11T00:16:47.032Z,8.40
2022-09-11T00:19:19.828Z,7.28
2022-09-11T00:21:47.403Z,8.50
2022-09-11T00:24:14.202Z,7.90
2022-09-11T00:26:42.284Z,8.85
2022-09-11T00:29:09.590Z,7.40
2022-09-11T00:31:36.245Z,7.40
2022-09-11T00:34:02.896Z,6.78
2022-09-11T00:36:31.451Z,6.93
2022-09-11T00:38:58.910Z,7.10
2022-09-11T00:41:28.667Z,7.90
2022-09-11T00:44:07.375Z,7.85
2022-09-11T00:46:55.871Z,8.32
2022-09-11T00:49:34.672Z,8.05
2022-09-11T00:52:14.881Z,7.40
2022-09-11T00:54:48.311Z,7.68
2022-09-11T00:57:17.289Z,7.47
2022-09-11T00:59:47.378Z,7.93
2022-09-11T01:02:19.290Z,8.65
2022-09-11T01:04:45.970Z,7.65
2022-09-11T01:07:16.429Z,8.05
2022-09-11T01:09:43.366Z,9.55
2022-09-11T01:12:23.792Z,6.30
2022-09-11T01:15:03.642Z,8.35
2022-09-11T01:17:43.892Z,8.52
2022-09-11T01:20:33.920Z,8.18
2022-09-11T01:23:24.386Z,7.85
2022-09-11T01:26:24.575Z,8.18
2022-09-11T01:28:58.750Z,7.97
2022-09-11T01:31:29.619Z,8.43
2022-09-11T01:34:08.001Z,7.70
2022-09-11T01:36:46.443Z,7.55
2022-09-11T01:39:15.383Z,8.90
2022-09-11T01:41:53.073Z,9.15
2022-09-11T01:44:31.734Z,7.47
2022-09-11T01:46:58.733Z,8.43
2022-09-11T01:49:37.309Z,8.43
2022-09-11T01:52:23.498Z,7.65
2022-09-11T01:54:56.031Z,7.60
2022-09-11T01:57:37.574Z,7.00
2022-09-11T02:00:09.470Z,7.85
2022-09-11T02:02:52.322Z,9.30
2022-09-11T02:05:29.224Z,8.65
2022-09-11T02:08:08.415Z,7.30
2022-09-11T02:10:42.448Z,9.10
2022-09-11T02:13:15.516Z,8.68
2022-09-11T02:15:46.451Z,9.32
2022-09-11T02:18:31.751Z,9.20
2022-09-11T02:20:58.332Z,9.80
2022-09-11T02:23:24.951Z,9.13
2022-09-11T02:25:52.521Z,8.93
2022-09-11T02:28:19.011Z,9.40
2022-09-11T02:30:46.132Z,9.75
2022-09-11T02:33:31.812Z,10.18
2022-09-11T02:36:40.647Z,9.57
2022-09-11T02:39:13.610Z,10.70
2022-09-11T02:42:03.882Z,9.93
2022-09-11T02:44:56.446Z,9.93
2022-09-11T02:47:26.056Z,8.35
2022-09-11T02:49:55.868Z,9.07
2022-09-11T02:52:35.897Z,9.13
2022-09-11T02:55:16.767Z,6.97
2022-09-11T02:57:55.724Z,8.88
2022-09-11T03:00:23.024Z,8.32
2022-09-11T03:02:49.591Z,8.05
2022-09-11T03:05:18.639Z,8.13
2022-09-11T03:07:45.302Z,7.57
2022-09-11T03:10:11.885Z,8.75
2022-09-11T03:12:39.725Z,7.70
2022-09-11T03:15:07.495Z,6.93
2022-09-11T03:17:34.213Z,6.55
2022-09-11T03:20:02.556Z,7.57
2022-09-11T03:22:29.520Z,7.55
2022-09-11T03:24:57.185Z,7.78
2022-09-11T03:27:25.988Z,7.18
2022-09-11T03:29:52.614Z,8.48
2022-09-11T03:32:19.523Z,7.90
2022-09-11T03:34:47.282Z,8.43
2022-09-11T03:37:14.046Z,8.88
2022-09-11T03:39:40.730Z,6.97
2022-09-11T03:42:07.345Z,8.70
2022-09-11T03:44:34.416Z,6.68
2022-09-11T03:47:01.265Z,8.23
2022-09-11T03:49:27.944Z,8.20
2022-09-11T03:51:54.816Z,7.72
2022-09-11T03:54:21.444Z,7.25
2022-09-11T03:56:49.730Z,7.63
2022-09-11T03:59:16.389Z,8.35
2022-09-11T04:01:44.312Z,7.65
2022-09-11T04:04:10.933Z,8.18
2022-09-11T04:06:41.862Z,8.60
2022-09-11T04:09:09.025Z,8.38
2022-09-11T04:11:38.865Z,8.50
2022-09-11T04:14:10.318Z,9.30
2022-09-11T04:16:38.693Z,8.20
2022-09-11T04:19:05.576Z,8.48
2022-09-11T04:21:34.675Z,8.95
2022-09-11T04:24:01.804Z,8.43
2022-09-11T04:26:31.822Z,8.10
2022-09-11T04:29:05.752Z,9.23
2022-09-11T04:31:35.690Z,10.38
2022-09-11T04:34:02.615Z,8.43
2022-09-11T04:36:32.523Z,9.40
2022-09-11T04:39:00.392Z,8.63
2022-09-11T04:41:28.601Z,9.25
2022-09-11T04:44:04.876Z,7.68
2022-09-11T04:46:34.546Z,8.18
2022-09-11T04:49:02.253Z,9.07
2022-09-11T04:51:33.301Z,8.10
2022-09-11T04:54:00.690Z,8.80
2022-09-11T04:56:34.688Z,7.88
2022-09-11T04:59:05.854Z,8.23
2022-09-11T05:01:35.527Z,7.50
2022-09-11T05:04:02.277Z,7.25
2022-09-11T05:06:30.299Z,8.13
2022-09-11T05:09:05.027Z,8.48
2022-09-11T05:11:35.067Z,7.73
2022-09-11T05:14:01.710Z,7.15
2022-09-11T05:16:31.279Z,7.90
2022-09-11T05:18:58.750Z,6.60
2022-09-11T05:21:26.974Z,7.05
2022-09-11T05:23:56.276Z,7.20
2022-09-11T05:26:25.637Z,6.88
2022-09-11T05:28:58.514Z,8.23
2022-09-11T05:31:26.203Z,7.80
2022-09-11T05:33:55.859Z,8.05
2022-09-11T05:36:23.781Z,7.82
2022-09-11T05:38:50.663Z,8.73
2022-09-11T05:41:19.171Z,8.50
2022-09-11T05:43:45.778Z,8.60
2022-09-11T05:46:15.555Z,7.63
2022-09-11T05:48:43.109Z,7.18
2022-09-11T05:51:12.882Z,8.80
2022-09-11T05:53:40.667Z,7.85
2022-09-11T05:56:16.204Z,8.65
2022-09-11T05:58:44.340Z,8.05
2022-09-11T06:01:13.554Z,8.00
2022-09-11T06:03:43.155Z,8.73
2022-09-11T06:06:13.362Z,8.32
2022-09-11T06:08:44.063Z,8.52
2022-09-11T06:11:13.074Z,7.60
2022-09-11T06:13:42.287Z,7.25
2022-09-11T06:16:13.401Z,6.95
2022-09-11T06:18:42.926Z,7.68
2022-09-11T06:21:12.799Z,8.80
2022-09-11T06:23:47.682Z,7.78
2022-09-11T06:26:16.343Z,7.95
2022-09-11T06:28:44.817Z,8.57
2022-09-11T06:31:16.187Z,6.88
2022-09-11T06:33:43.965Z,7.13
2022-09-11T06:36:23.047Z,7.57
2022-09-11T06:38:55.323Z,8.48
2022-09-11T06:41:24.976Z,8.45
2022-09-11T06:43:55.355Z,8.00
2022-09-11T06:46:24.536Z,9.57
2022-09-11T06:48:55.684Z,8.57
2022-09-11T06:51:25.607Z,8.38
2022-09-11T06:53:56.113Z,8.02
2022-09-11T06:56:22.685Z,8.52
2022-09-11T06:58:50.499Z,9.10
2022-09-11T07:01:20.379Z,9.25
2022-09-11T07:03:54.294Z,8.98
2022-09-11T07:06:24.071Z,9.45
2022-09-11T07:08:52.361Z,8.13
2022-09-11T07:11:19.719Z,7.70
2022-09-11T07:13:47.506Z,7.88
2022-09-11T07:16:16.301Z,7.72
2022-09-11T07:18:47.961Z,9.30
2022-09-11T07:21:22.496Z,8.43
2022-09-11T07:23:54.976Z,7.80
2022-09-11T07:26:24.116Z,8.13
2022-09-11T07:28:57.498Z,7.30
2022-09-11T07:31:29.064Z,7.80
2022-09-11T07:33:57.006Z,8.20
2022-09-11T07:36:31.246Z,7.80
2022-09-11T07:38:59.678Z,7.32
2022-09-11T07:41:34.637Z,7.70
2022-09-11T07:44:06.489Z,7.70
2022-09-11T07:46:34.020Z,7.05
2022-09-11T07:49:04.340Z,7.47
2022-09-11T07:51:30.983Z,8.45
2022-09-11T07:54:02.742Z,8.07
2022-09-11T07:56:33.796Z,7.63
2022-09-11T07:59:02.512Z,8.52
2022-09-11T08:01:30.823Z,8.15
2022-09-11T08:04:10.034Z,8.52
2022-09-11T08:06:38.418Z,7.80
2022-09-11T08:09:15.859Z,7.93
2022-09-11T08:11:49.876Z,7.50
2022-09-11T08:14:18.336Z,6.78
2022-09-11T08:16:48.278Z,7.82
2022-09-11T08:19:18.443Z,7.57
2022-09-11T08:21:48.379Z,7.53
2022-09-11T08:24:21.288Z,8.05
2022-09-11T08:26:50.602Z,7.38
2022-09-11T08:29:18.534Z,7.65
2022-09-11T08:31:45.601Z,7.78
2022-09-11T08:34:13.463Z,7.63
2022-09-11T08:36:40.070Z,8.38
2022-09-11T08:39:09.025Z,7.75
2022-09-11T08:41:56.402Z,8.13
2022-09-11T08:44:29.920Z,7.25
2022-09-11T08:47:19.078Z,6.18
2022-09-11T08:50:01.991Z,8.02
2022-09-11T08:52:29.745Z,7.88
2022-09-11T08:54:59.342Z,8.55
2022-09-11T08:57:46.783Z,8.13
2022-09-11T09:00:30.851Z,8.18
2022-09-11T09:03:25.539Z,6.97
2022-09-11T09:05:56.290Z,8.30
2022-09-11T09:08:37.228Z,8.38
2022-09-11T09:11:10.094Z,7.68
2022-09-11T09:13:57.343Z,8.70
2022-09-11T09:16:45.370Z,8.20
2022-09-11T09:19:20.247Z,7.97
2022-09-11T09:22:06.262Z,8.60
2022-09-11T09:24:42.330Z,7.45
2022-09-11T09:27:22.052Z,7.23
2022-09-11T09:29:55.615Z,7.60
2022-09-11T09:32:29.944Z,8.18
2022-09-11T09:35:02.949Z,8.45
2022-09-11T09:37:29.801Z,7.38
2022-09-11T09:40:00.828Z,8.38
2022-09-11T09:42:53.761Z,7.70
2022-09-11T09:45:52.828Z,6.90
2022-09-11T09:48:19.585Z,8.30
2022-09-11T09:50:47.455Z,9.25
2022-09-11T09:53:41.427Z,7.95
2022-09-11T09:56:13.359Z,7.00
2022-09-11T09:58:48.733Z,6.95
2022-09-11T10:01:47.791Z,7.53
2022-09-11T10:04:20.839Z,7.10
2022-09-11T10:06:50.271Z,7.20
2022-09-11T10:09:24.894Z,7.90
2022-09-11T10:12:01.711Z,8.25
2022-09-11T10:14:50.955Z,7.90
2022-09-11T10:17:31.251Z,7.28
2022-09-11T10:20:34.791Z,7.65
2022-09-11T10:23:25.537Z,8.38
2022-09-11T10:25:53.204Z,7.15
2022-09-11T10:28:38.209Z,8.20
2022-09-11T10:31:05.304Z,8.15
2022-09-11T10:33:36.138Z,7.75
2022-09-11T10:36:05.980Z,8.00
2022-09-11T10:38:52.039Z,7.53
2022-09-11T10:41:34.816Z,7.80
2022-09-11T10:44:04.217Z,7.88
2022-09-11T10:46:38.949Z,8.25
2022-09-11T10:49:05.429Z,7.78
2022-09-11T10:51:35.029Z,8.93
2022-09-11T10:54:40.409Z,8.40
2022-09-11T10:57:34.451Z,7.80
2022-09-11T11:00:27.066Z,7.57
2022-09-11T11:03:05.306Z,8.10
2022-09-11T11:05:44.847Z,7.88
2022-09-11T11:08:17.399Z,7.97
2022-09-11T11:11:12.642Z,8.45
2022-09-11T11:14:12.150Z,7.72
2022-09-11T11:16:53.781Z,9.23
2022-09-11T11:19:51.377Z,8.40
2022-09-11T11:23:04.087Z,8.07
2022-09-11T11:26:04.648Z,9.10
2022-09-11T11:29:14.500Z,8.52
2022-09-11T11:31:59.949Z,8.90
2022-09-11T11:34:42.743Z,8.63
2022-09-11T11:37:18.042Z,9.20
2022-09-11T11:39:50.701Z,8.35
2022-09-11T11:42:26.846Z,8.50
2022-09-11T11:45:04.404Z,9.18
2022-09-11T11:47:37.001Z,10.18
2022-09-11T11:50:52.642Z,11.52
2022-09-11T11:53:33.017Z,10.55
2022-09-11T11:56:08.573Z,10.27
2022-09-11T11:58:53.862Z,9.10
2022-09-11T12:01:44.253Z,13.57
2022-09-11T12:04:43.629Z,13.98
2022-09-11T12:07:17.738Z,13.70
2022-09-11T12:09:49.538Z,15.85
2022-09-11T12:12:17.889Z,14.60
2022-09-11T12:14:54.065Z,13.70
2022-09-11T12:18:19.152Z,15.77
2022-09-11T12:20:46.138Z,15.07
2022-09-11T12:23:31.150Z,13.20
2022-09-11T12:26:16.050Z,13.00
2022-09-11T12:28:42.818Z,15.67
2022-09-11T12:31:12.491Z,15.13
2022-09-11T12:33:47.062Z,14.88
2022-09-11T12:36:26.573Z,14.20
2022-09-11T12:38:56.988Z,11.43
2022-09-11T12:41:49.806Z,13.55
2022-09-11T12:44:53.039Z,13.73
2022-09-11T12:47:41.208Z,12.73
2022-09-11T12:50:10.702Z,12.88
2022-09-11T12:52:43.140Z,11.65
2022-09-11T12:55:39.482Z,9.93
2022-09-11T13:01:07.519Z,11.45
2022-09-11T13:03:35.236Z,11.35
2022-09-11T13:06:06.712Z,9.40
2022-09-11T13:08:38.657Z,8.73
2022-09-11T13:11:36.017Z,11.55
2022-09-11T13:14:05.265Z,14.23
2022-09-11T13:16:35.825Z,13.63
2022-09-11T13:19:20.658Z,12.73
2022-09-11T13:21:51.824Z,12.95
2022-09-11T13:24:27.325Z,12.48
2022-09-11T13:29:30.069Z,12.07
2022-09-11T13:31:58.834Z,11.77
2022-09-11T13:34:29.007Z,12.15
2022-09-11T13:36:57.227Z,12.48
2022-09-11T13:39:26.726Z,10.82
2022-09-11T13:42:04.761Z,10.75
2022-09-11T13:44:42.563Z,10.75
2022-09-11T13:47:18.979Z,9.57
2022-09-11T13:49:48.121Z,10.45
2022-09-11T13:52:15.326Z,10.75
2022-09-11T13:54:48.956Z,10.40
2022-09-11T13:57:17.459Z,9.85
2022-09-11T14:00:04.234Z,10.00
2022-09-11T14:02:49.324Z,8.98
2022-09-11T14:05:26.831Z,8.50
2022-09-11T14:08:22.723Z,8.82
2022-09-11T14:10:56.687Z,8.52
2022-09-11T14:13:29.117Z,9.07
2022-09-11T14:16:04.353Z,9.45
2022-09-11T14:21:17.002Z,9.70
2022-09-11T14:23:50.247Z,9.05
2022-09-11T14:26:20.159Z,11.10
2022-09-11T14:28:58.103Z,9.88
2022-09-11T14:31:37.653Z,10.32
2022-09-11T14:34:10.220Z,11.07
2022-09-11T14:36:44.123Z,9.65
2022-09-11T14:39:21.538Z,9.88
2022-09-11T14:41:48.299Z,10.85
2022-09-11T14:44:17.281Z,9.57
2022-09-11T14:46:44.165Z,9.90
2022-09-11T14:49:12.749Z,9.10
2022-09-11T14:51:40.910Z,8.32
2022-09-11T14:54:14.014Z,8.40
2022-09-11T14:56:41.581Z,8.68
2022-09-11T14:59:08.602Z,8.30
2022-09-11T15:01:36.694Z,8.80
2022-09-11T15:04:03.789Z,8.65
2022-09-11T15:06:31.068Z,7.93
2022-09-11T15:08:59.656Z,8.63
2022-09-11T15:11:26.307Z,7.78
2022-09-11T15:14:13.783Z,7.03
2022-09-11T15:16:42.683Z,6.93
2022-09-11T15:19:10.233Z,7.10
2022-09-11T15:21:37.723Z,6.95
2022-09-11T15:24:05.586Z,6.35
2022-09-11T15:26:33.758Z,7.63
2022-09-11T15:29:00.644Z,6.57
2022-09-11T15:31:30.327Z,6.30
2022-09-11T15:33:57.191Z,7.68
2022-09-11T15:36:24.903Z,5.07
2022-09-11T15:38:55.450Z,4.90
2022-09-11T15:41:27.896Z,5.38
2022-09-11T15:43:54.625Z,5.70
2022-09-11T15:46:22.678Z,5.22
2022-09-11T15:48:50.404Z,5.90
2022-09-11T15:51:20.089Z,6.13
2022-09-11T15:53:48.384Z,6.40
2022-09-11T15:56:25.246Z,5.75
2022-09-11T15:58:52.693Z,5.22
2022-09-11T16:01:23.189Z,4.97
2022-09-11T16:03:51.922Z,5.57
2022-09-11T16:06:19.144Z,5.53
2022-09-11T16:08:46.218Z,4.47
2022-09-11T16:11:14.191Z,5.30
2022-09-11T16:13:41.553Z,6.40
2022-09-11T16:16:08.182Z,5.78
2022-09-11T16:18:39.203Z,5.07
2022-09-11T16:21:06.911Z,4.70
2022-09-11T16:23:38.615Z,5.75
2022-09-11T16:26:08.090Z,4.32
2022-09-11T16:28:36.565Z,5.15
2022-09-11T16:31:05.122Z,5.15
2022-09-11T16:33:34.276Z,5.25
2022-09-11T16:36:05.468Z,7.00
2022-09-11T16:38:33.595Z,6.47
2022-09-11T16:41:03.806Z,5.97
2022-09-11T16:43:31.492Z,6.10
2022-09-11T16:45:58.107Z,6.55
2022-09-11T16:48:25.524Z,5.22
2022-09-11T16:50:53.966Z,6.70
2022-09-11T16:53:22.547Z,6.18
2022-09-11T16:55:49.054Z,4.70
2022-09-11T16:58:16.220Z,5.55
2022-09-11T17:00:43.069Z,6.45
2022-09-11T17:03:10.298Z,4.57
2022-09-11T17:05:36.861Z,5.10
2022-09-11T17:08:04.086Z,4.93
2022-09-11T17:10:30.599Z,4.70
2022-09-11T17:12:57.178Z,5.03
2022-09-11T17:15:25.232Z,4.28
2022-09-11T17:17:54.514Z,5.25
2022-09-11T17:20:21.057Z,4.72
2022-09-11T17:22:47.589Z,4.78
2022-09-11T17:25:14.118Z,4.93
2022-09-11T17:27:40.647Z,4.82
2022-09-11T17:30:07.710Z,4.55
2022-09-11T17:32:34.320Z,4.97
2022-09-11T17:35:00.865Z,4.88
2022-09-11T17:37:27.758Z,5.32
2022-09-11T17:39:55.312Z,4.75
2022-09-11T17:42:22.691Z,4.32
2022-09-11T17:44:49.408Z,5.78
2022-09-11T17:47:16.056Z,5.93
2022-09-11T17:49:42.958Z,5.40
2022-09-11T17:52:09.713Z,5.07
2022-09-11T17:54:36.192Z,5.82
2022-09-11T17:57:02.886Z,5.90
2022-09-11T17:59:29.530Z,5.20
2022-09-11T18:01:56.294Z,6.07
2022-09-11T18:04:22.894Z,5.90
2022-09-11T18:06:50.986Z,6.13
2022-09-11T18:09:19.558Z,6.45
2022-09-11T18:11:48.025Z,6.13
2022-09-11T18:14:15.756Z,6.60
2022-09-11T18:16:46.872Z,5.85
2022-09-11T18:19:15.883Z,6.13
2022-09-11T18:21:44.683Z,5.55
2022-09-11T18:24:19.764Z,7.57
2022-09-11T18:26:55.062Z,5.97
2022-09-11T18:29:23.919Z,7.57
2022-09-11T18:31:53.123Z,7.50
2022-09-11T18:34:22.316Z,8.13
2022-09-11T18:36:49.410Z,6.72
2022-09-11T18:39:17.936Z,6.30
2022-09-11T18:41:45.862Z,7.47
2022-09-11T18:44:19.263Z,7.50
2022-09-11T18:46:46.468Z,7.68
2022-09-11T18:49:14.460Z,8.43
2022-09-11T18:51:42.119Z,8.30
2022-09-11T18:54:14.859Z,8.57
2022-09-11T18:56:42.107Z,7.95
2022-09-11T18:59:12.960Z,8.52
2022-09-11T19:01:40.626Z,6.43
2022-09-11T19:04:10.119Z,8.13
2022-09-11T19:06:40.192Z,6.78
2022-09-11T19:09:10.210Z,6.72
2022-09-11T19:11:37.440Z,7.00
2022-09-11T19:14:07.140Z,6.97
2022-09-11T19:16:34.300Z,8.50
2022-09-11T19:19:00.914Z,8.15
2022-09-11T19:21:27.668Z,7.88
2022-09-11T19:23:57.640Z,7.18
2022-09-11T19:26:30.613Z,6.15
2022-09-11T19:28:57.466Z,6.95
2022-09-11T19:31:28.870Z,6.60
2022-09-11T19:34:03.109Z,7.50
2022-09-11T19:36:31.435Z,7.32
2022-09-11T19:39:01.429Z,7.78
2022-09-11T19:41:33.398Z,7.50
2022-09-11T19:44:05.691Z,6.28
2022-09-11T19:46:34.121Z,7.55
2022-09-11T19:49:08.828Z,7.28
2022-09-11T19:51:38.673Z,7.78
2022-09-11T19:54:06.318Z,6.85
2022-09-11T19:56:35.284Z,8.38
2022-09-11T19:59:02.054Z,7.80
2022-09-11T20:01:30.006Z,7.57
2022-09-11T20:03:57.785Z,7.30
2022-09-11T20:06:30.709Z,7.97
2022-09-11T20:09:13.742Z,8.18
2022-09-11T20:11:45.338Z,7.00
2022-09-11T20:14:12.363Z,7.72
2022-09-11T20:16:39.059Z,6.38
2022-09-11T20:19:06.307Z,6.68
2022-09-11T20:21:35.138Z,6.82
2022-09-11T20:24:02.515Z,8.43
2022-09-11T20:26:30.077Z,7.32
2022-09-11T20:29:00.568Z,7.05
2022-09-11T20:31:31.391Z,8.18
2022-09-11T20:34:00.753Z,6.72
2022-09-11T20:36:29.970Z,7.22
2022-09-11T20:38:58.255Z,7.00
2022-09-11T20:41:29.508Z,6.80
2022-09-11T20:43:57.345Z,6.60
2022-09-11T20:46:24.079Z,7.30
2022-09-11T20:48:52.784Z,6.35
2022-09-11T20:51:21.316Z,6.65
2022-09-11T20:53:48.668Z,6.72
2022-09-11T20:56:19.154Z,7.03
2022-09-11T20:58:45.886Z,6.93
2022-09-11T21:01:15.842Z,6.75
2022-09-11T21:03:56.559Z,6.28
2022-09-11T21:06:26.426Z,6.55
2022-09-11T21:08:55.494Z,7.68
2022-09-11T21:11:24.363Z,6.40
2022-09-11T21:13:51.031Z,6.80
2022-09-11T21:16:17.899Z,6.70
2022-09-11T21:18:47.412Z,7.15
2022-09-11T21:21:14.277Z,6.80
2022-09-11T21:23:41.049Z,7.65
2022-09-11T21:26:09.527Z,6.25
2022-09-11T21:28:36.106Z,6.53
2022-09-11T21:31:03.612Z,7.30
2022-09-11T21:33:30.242Z,7.25
2022-09-11T21:35:56.796Z,7.35
2022-09-11T21:38:25.823Z,7.30
2022-09-11T21:40:52.344Z,6.47
2022-09-11T21:43:18.904Z,6.30
2022-09-11T21:45:45.527Z,7.57
2022-09-11T21:48:12.478Z,6.63
2022-09-11T21:50:40.255Z,6.10
2022-09-11T21:53:07.942Z,6.80
2022-09-11T21:55:42.730Z,5.75
2022-09-11T21:58:14.474Z,5.72
2022-09-11T22:00:43.287Z,5.22
2022-09-11T22:03:12.593Z,6.70
2022-09-11T22:05:43.031Z,6.15
2022-09-11T22:08:11.631Z,5.35
2022-09-11T22:10:42.840Z,6.22
2022-09-11T22:13:10.563Z,6.15
2022-09-11T22:15:41.166Z,6.40
2022-09-11T22:18:08.427Z,6.22
2022-09-11T22:20:37.398Z,6.57
2022-09-11T22:23:04.394Z,7.13
2022-09-11T22:25:31.333Z,5.68
2022-09-11T22:27:58.064Z,5.00
2022-09-11T22:30:24.596Z,6.22
2022-09-11T22:32:51.170Z,7.95
2022-09-11T22:35:17.792Z,7.78
2022-09-11T22:37:44.444Z,6.70
2022-09-11T22:40:11.041Z,6.97
2022-09-11T22:42:37.723Z,7.25
2022-09-11T22:45:04.735Z,5.68
2022-09-11T22:47:31.354Z,5.28
2022-09-11T22:49:57.866Z,5.80
2022-09-11T22:52:24.591Z,5.60
2022-09-11T22:54:51.263Z,6.03
2022-09-11T22:57:17.972Z,6.35
2022-09-11T22:59:46.842Z,6.32
2022-09-11T23:02:14.463Z,5.80
2022-09-11T23:05:01.087Z,6.72
2022-09-11T23:07:27.733Z,7.00
2022-09-11T23:09:54.276Z,6.95
2022-09-11T23:12:20.824Z,6.18
2022-09-11T23:14:47.519Z,6.07
2022-09-11T23:17:14.068Z,6.50
2022-09-11T23:19:40.562Z,7.45
2022-09-11T23:22:07.088Z,6.53
2022-09-11T23:24:33.915Z,6.82
2022-09-11T23:27:00.440Z,6.30
2022-09-11T23:29:27.187Z,6.63
2022-09-11T23:31:56.343Z,7.20
2022-09-11T23:34:23.038Z,7.25
2022-09-11T23:36:49.624Z,7.22
2022-09-11T23:39:16.266Z,7.43
2022-09-11T23:41:42.792Z,5.13
2022-09-11T23:44:09.773Z,5.90
2022-09-11T23:46:36.381Z,5.32
2022-09-11T23:49:03.011Z,5.32
2022-09-11T23:51:29.602Z,5.57
2022-09-11T23:53:56.130Z,5.88
2022-09-11T23:56:22.903Z,6.72
2022-09-11T23:58:50.122Z,7.38
